Time;durP1;ratioP1;P1;durP2;ratioP2;P2;SDS_P1;SDS_P2;PMS_P1;PMS_P2;Temp;Humidity;BMP_temperature;BMP_pressure;BME280_temperature;BME280_humidity;BME280_pressure;Samples;Min_cycle;Max_cycle;Signal;HPM_P1;HPM_P2
2022/12/19 00:01:05;;;;;;;5.93;3.30;;;1.50;84.20;;;;;;5080416;28;20189;-68
2022/12/19 00:03:31;;;;;;;8.03;3.40;;;1.50;84.10;;;;;;5080662;28;20785;-69
2022/12/19 00:06:03;;;;;;;8.80;3.90;;;1.60;84.10;;;;;;5079518;28;20202;-67
2022/12/19 00:08:30;;;;;;;7.43;3.23;;;1.60;84.00;;;;;;5080427;28;20216;-68
2022/12/19 00:10:59;;;;;;;3.40;2.97;;;1.60;84.00;;;;;;5079996;28;20268;-68
2022/12/19 00:13:26;;;;;;;4.50;3.73;;;1.60;84.00;;;;;;5079646;28;20230;-70
2022/12/19 00:15:51;;;;;;;4.73;3.37;;;1.60;84.20;;;;;;5080283;28;20193;-68
2022/12/19 00:18:17;;;;;;;6.93;4.37;;;1.60;84.10;;;;;;5081706;28;20194;-66
2022/12/19 00:20:43;;;;;;;3.07;2.73;;;1.60;84.20;;;;;;5081176;28;20319;-67
2022/12/19 00:23:09;;;;;;;3.57;2.90;;;1.70;84.00;;;;;;5081988;28;20657;-69
2022/12/19 00:25:34;;;;;;;3.93;3.20;;;1.70;83.90;;;;;;5080120;28;20675;-68
2022/12/19 00:28:00;;;;;;;7.00;3.57;;;1.80;84.00;;;;;;5078779;28;20343;-68
2022/12/19 00:30:26;;;;;;;4.57;3.50;;;1.80;83.90;;;;;;5079260;28;20269;-68
2022/12/19 00:32:51;;;;;;;7.10;4.37;;;1.80;83.90;;;;;;5080616;28;20192;-69
2022/12/19 00:35:17;;;;;;;4.07;2.97;;;1.80;84.00;;;;;;5081163;28;20659;-68
2022/12/19 00:37:43;;;;;;;6.70;4.07;;;1.80;84.00;;;;;;5081289;28;20197;-69
2022/12/19 00:40:09;;;;;;;3.33;2.73;;;1.80;84.00;;;;;;5081381;28;20171;-68
2022/12/19 00:42:34;;;;;;;7.67;3.20;;;1.80;84.10;;;;;;5080147;28;20182;-69
2022/12/19 00:45:00;;;;;;;7.03;3.10;;;1.80;84.00;;;;;;5081198;28;20641;-68
2022/12/19 00:47:26;;;;;;;4.97;3.67;;;1.80;84.00;;;;;;5081301;28;20766;-68
2022/12/19 00:49:51;;;;;;;4.33;3.93;;;1.80;84.20;;;;;;5079763;28;20183;-69
2022/12/19 00:52:17;;;;;;;4.43;3.53;;;1.70;84.20;;;;;;5080784;28;20175;-68
2022/12/19 00:54:43;;;;;;;3.87;3.13;;;1.70;84.30;;;;;;5079551;28;20182;-68
2022/12/19 00:57:08;;;;;;;4.73;3.23;;;1.80;84.30;;;;;;5081370;28;20198;-68
2022/12/19 00:59:34;;;;;;;7.67;3.33;;;1.80;84.20;;;;;;5078701;28;21001;-68
2022/12/19 01:01:59;;;;;;;6.67;4.20;;;1.90;84.00;;;;;;5077381;28;20239;-68
2022/12/19 01:04:25;;;;;;;5.63;3.57;;;1.80;84.20;;;;;;5079185;28;20755;-68
2022/12/19 01:06:51;;;;;;;5.53;4.40;;;1.80;84.40;;;;;;5080300;28;20179;-68
2022/12/19 01:09:17;;;;;;;9.47;4.57;;;1.70;84.50;;;;;;5081212;28;20218;-69
2022/12/19 01:14:26;;;;;;;5.53;3.60;;;1.80;84.50;;;;;;5079607;28;20185;-68
2022/12/19 01:16:52;;;;;;;6.60;3.83;;;1.70;84.70;;;;;;5079500;28;20183;-67
2022/12/19 01:19:18;;;;;;;3.93;3.13;;;1.70;84.70;;;;;;5083035;28;20185;-68
2022/12/19 01:21:44;;;;;;;4.73;3.33;;;1.70;84.80;;;;;;5081943;28;20265;-68
2022/12/19 01:24:10;;;;;;;5.27;4.07;;;1.80;84.70;;;;;;5084926;28;20269;-65
2022/12/19 01:26:36;;;;;;;5.83;3.50;;;1.80;84.60;;;;;;5079601;28;20186;-69
2022/12/19 01:29:03;;;;;;;5.77;4.17;;;1.70;84.70;;;;;;5082813;28;20609;-69
2022/12/19 01:31:28;;;;;;;7.50;4.37;;;1.70;84.90;;;;;;5085431;28;20186;-69
2022/12/19 01:33:54;;;;;;;4.67;3.50;;;1.80;84.90;;;;;;5084523;28;20178;-68
2022/12/19 01:36:20;;;;;;;7.10;4.00;;;1.80;84.70;;;;;;5084494;28;20197;-68
2022/12/19 01:38:45;;;;;;;9.90;4.60;;;1.80;84.70;;;;;;5084117;28;20186;-69
2022/12/19 01:41:11;;;;;;;5.70;3.27;;;1.80;84.80;;;;;;5083860;28;20175;-68
2022/12/19 01:43:57;;;;;;;8.30;4.20;;;1.80;84.70;;;;;;5080246;28;20581;-68
2022/12/19 01:46:39;;;;;;;3.40;3.10;;;1.80;84.60;;;;;;5081791;28;20194;-68
2022/12/19 01:49:11;;;;;;;3.53;3.07;;;1.70;84.70;;;;;;5083842;28;20214;-68
2022/12/19 01:51:41;;;;;;;4.00;3.50;;;1.70;84.80;;;;;;5079922;28;20182;-69
2022/12/19 01:54:11;;;;;;;7.60;4.17;;;1.70;84.70;;;;;;5084215;28;20575;-69
2022/12/19 01:56:44;;;;;;;8.40;3.93;;;1.70;84.70;;;;;;5081775;28;20617;-68
2022/12/19 01:59:17;;;;;;;6.97;3.57;;;1.70;84.70;;;;;;5082011;28;20182;-68
2022/12/19 02:01:42;;;;;;;4.53;3.13;;;1.70;84.90;;;;;;5084190;28;20182;-69
2022/12/19 02:04:09;;;;;;;7.57;3.77;;;1.70;84.80;;;;;;5081512;28;20251;-68
2022/12/19 02:06:37;;;;;;;5.87;3.90;;;1.70;84.80;;;;;;5082935;28;20584;-68
2022/12/19 02:09:03;;;;;;;5.43;3.20;;;1.70;84.90;;;;;;5082133;28;20795;-67
2022/12/19 02:11:28;;;;;;;5.43;4.03;;;1.70;85.00;;;;;;5080679;28;20182;-68
2022/12/19 02:13:54;;;;;;;4.43;3.30;;;1.70;85.10;;;;;;5081847;28;20181;-67
2022/12/19 02:16:28;;;;;;;5.37;3.87;;;1.70;85.00;;;;;;5084074;28;20193;-68
2022/12/19 02:19:06;;;;;;;5.00;3.47;;;1.70;85.00;;;;;;5082236;28;20189;-69
2022/12/19 02:21:46;;;;;;;6.27;3.77;;;1.70;85.00;;;;;;5079912;28;20270;-68
2022/12/19 02:24:32;;;;;;;5.23;3.83;;;1.70;84.90;;;;;;5083811;28;20231;-68
2022/12/19 02:27:16;;;;;;;3.10;2.80;;;1.60;85.10;;;;;;5084598;28;20174;-68
2022/12/19 02:29:56;;;;;;;5.40;3.67;;;1.60;85.20;;;;;;5082971;28;20190;-68
2022/12/19 02:32:51;;;;;;;3.47;3.17;;;1.60;85.20;;;;;;5082140;28;20193;-68
2022/12/19 02:35:35;;;;;;;3.47;3.17;;;1.60;85.30;;;;;;5082901;28;20179;-68
2022/12/19 02:38:12;;;;;;;6.77;4.00;;;1.50;85.40;;;;;;5079438;28;20221;-68
2022/12/19 02:40:43;;;;;;;3.20;2.97;;;1.50;85.40;;;;;;5082724;28;20264;-70
2022/12/19 02:43:13;;;;;;;5.47;3.33;;;1.50;85.30;;;;;;5081148;28;20186;-69
2022/12/19 02:45:41;;;;;;;4.67;3.10;;;1.40;85.50;;;;;;5083306;28;20190;-69
2022/12/19 02:48:08;;;;;;;7.17;4.50;;;1.40;85.60;;;;;;5082333;28;20218;-68
2022/12/19 02:50:42;;;;;;;7.90;4.13;;;1.50;85.60;;;;;;5082659;28;20206;-68
2022/12/19 02:53:12;;;;;;;7.90;4.00;;;1.50;85.50;;;;;;5081780;28;20194;-68
2022/12/19 02:56:07;;;;;;;6.83;5.37;;;1.40;85.50;;;;;;5081292;28;20293;-68
2022/12/19 02:58:36;;;;;;;3.63;3.07;;;1.40;85.40;;;;;;5079980;28;20211;-69
2022/12/19 03:01:10;;;;;;;5.00;3.20;;;1.50;85.30;;;;;;5081108;28;20170;-69
2022/12/19 03:04:04;;;;;;;6.57;3.77;;;1.50;85.40;;;;;;5082894;28;20679;-68
2022/12/19 03:06:54;;;;;;;7.30;3.90;;;1.50;85.30;;;;;;5093807;28;20197;-69
2022/12/19 03:09:44;;;;;;;6.93;3.50;;;1.60;85.20;;;;;;5090849;28;20217;-68
2022/12/19 03:12:18;;;;;;;6.60;4.00;;;1.60;85.20;;;;;;5090141;28;20217;-68
2022/12/19 03:14:45;;;;;;;5.90;2.90;;;1.50;85.40;;;;;;5089626;28;20262;-68
2022/12/19 03:17:11;;;;;;;3.63;2.90;;;1.50;85.40;;;;;;5096764;28;20197;-69
2022/12/19 03:19:39;;;;;;;4.00;3.37;;;1.60;85.30;;;;;;5091893;28;20189;-68
2022/12/19 03:22:05;;;;;;;4.90;4.27;;;1.60;85.30;;;;;;5095412;28;20642;-68
2022/12/19 03:24:31;;;;;;;7.77;4.23;;;1.60;85.20;;;;;;5093608;28;20276;-69
2022/12/19 03:27:06;;;;;;;7.27;3.20;;;1.60;85.00;;;;;;5094748;28;20189;-69
2022/12/19 03:29:48;;;;;;;7.23;3.73;;;1.60;84.90;;;;;;5091063;28;20579;-68
2022/12/19 03:32:16;;;;;;;6.93;3.77;;;1.60;84.90;;;;;;5092877;28;20178;-68
2022/12/19 03:34:51;;;;;;;8.07;3.83;;;1.60;84.90;;;;;;5071361;28;20821;-68
2022/12/19 03:37:21;;;;;;;6.90;3.40;;;1.60;85.00;;;;;;5095886;28;20193;-69
2022/12/19 03:39:52;;;;;;;6.03;4.40;;;1.70;84.80;;;;;;5090751;28;20296;-68
2022/12/19 03:45:07;;;;;;;3.77;3.47;;;1.70;84.80;;;;;;5082420;28;20209;-69
2022/12/19 03:47:38;;;;;;;10.80;3.93;;;1.70;84.80;;;;;;5081859;28;20285;-69
2022/12/19 03:50:05;;;;;;;7.27;3.60;;;1.70;84.70;;;;;;5078777;28;20197;-68
2022/12/19 03:52:36;;;;;;;4.13;3.73;;;1.70;84.60;;;;;;5081435;28;20265;-69
2022/12/19 03:55:18;;;;;;;7.20;3.83;;;1.70;84.50;;;;;;5080799;28;20252;-69
2022/12/19 03:57:58;;;;;;;6.50;4.00;;;1.60;84.50;;;;;;5081082;28;20178;-68
2022/12/19 04:00:25;;;;;;;7.30;4.13;;;1.60;84.50;;;;;;5080647;28;20186;-68
2022/12/19 04:02:54;;;;;;;9.47;5.20;;;1.60;84.40;;;;;;5081337;28;20186;-68
2022/12/19 04:05:25;;;;;;;4.00;3.60;;;1.60;84.50;;;;;;5078882;28;20188;-67
2022/12/19 04:07:55;;;;;;;3.17;2.97;;;1.60;84.40;;;;;;5080180;28;20627;-68
2022/12/19 04:10:23;;;;;;;6.40;3.27;;;1.60;84.50;;;;;;5077897;28;20185;-68
2022/12/19 04:13:15;;;;;;;4.33;3.43;;;1.60;84.40;;;;;;5074636;28;20178;-68
2022/12/19 04:16:02;;;;;;;6.63;4.27;;;1.60;84.40;;;;;;5080797;28;20281;-69
2022/12/19 04:18:29;;;;;;;4.97;3.07;;;1.60;84.40;;;;;;5081988;28;20698;-69
2022/12/19 04:21:04;;;;;;;5.33;3.20;;;1.60;84.30;;;;;;5076973;28;20178;-69
2022/12/19 04:23:35;;;;;;;5.73;3.87;;;1.60;84.30;;;;;;5081135;28;20181;-69
2022/12/19 04:26:03;;;;;;;6.67;3.00;;;1.60;84.20;;;;;;5076553;28;21128;-69
2022/12/19 04:28:44;;;;;;;7.37;4.07;;;1.60;84.20;;;;;;5077593;28;20216;-68
2022/12/19 04:31:12;;;;;;;7.00;3.87;;;1.50;84.20;;;;;;5076249;28;20677;-69
2022/12/19 04:33:37;;;;;;;8.77;3.97;;;1.50;84.20;;;;;;5081507;28;20773;-69
2022/12/19 04:36:03;;;;;;;12.53;4.63;;;1.50;84.10;;;;;;5081512;28;20193;-69
2022/12/19 04:38:29;;;;;;;6.97;3.10;;;1.50;84.10;;;;;;5079643;28;20190;-69
2022/12/19 04:40:55;;;;;;;9.43;3.43;;;1.50;84.10;;;;;;5080040;28;20770;-69
2022/12/19 04:43:21;;;;;;;5.77;4.20;;;1.50;84.10;;;;;;5077916;28;20682;-68
2022/12/19 04:45:47;;;;;;;5.87;3.53;;;1.50;84.10;;;;;;5080847;28;20210;-67
2022/12/19 04:48:12;;;;;;;5.40;3.73;;;1.50;84.20;;;;;;5079236;28;20305;-68
2022/12/19 04:50:38;;;;;;;10.67;4.67;;;1.40;84.30;;;;;;5077578;28;20186;-68
2022/12/19 04:53:05;;;;;;;3.97;3.60;;;1.40;84.30;;;;;;5082628;28;20190;-68
2022/12/19 04:55:30;;;;;;;4.77;3.30;;;1.40;84.30;;;;;;5084858;28;20313;-69
2022/12/19 04:57:56;;;;;;;7.80;4.00;;;1.40;84.20;;;;;;5080054;28;20270;-69
2022/12/19 05:00:22;;;;;;;12.30;3.83;;;1.40;84.40;;;;;;5082995;28;20187;-69
2022/12/19 05:02:48;;;;;;;5.87;4.33;;;1.40;84.40;;;;;;5084874;28;20648;-67
2022/12/19 05:05:14;;;;;;;10.50;3.63;;;1.50;84.40;;;;;;5081260;28;20181;-68
2022/12/19 05:07:39;;;;;;;6.13;3.67;;;1.40;84.30;;;;;;5082437;28;20207;-68
2022/12/19 05:10:06;;;;;;;10.93;4.10;;;1.40;84.30;;;;;;5079918;28;20687;-71
2022/12/19 05:12:31;;;;;;;5.27;4.10;;;1.40;84.40;;;;;;5082912;28;20265;-70
2022/12/19 05:14:57;;;;;;;4.20;3.77;;;1.40;84.30;;;;;;5083551;28;20711;-70
2022/12/19 05:17:23;;;;;;;6.23;3.77;;;1.50;84.10;;;;;;5083233;28;20827;-70
2022/12/19 05:19:49;;;;;;;4.60;3.87;;;1.40;84.00;;;;;;5082949;28;20190;-71
2022/12/19 05:22:14;;;;;;;6.87;4.23;;;1.40;84.10;;;;;;5082386;28;20655;-71
2022/12/19 05:24:40;;;;;;;8.40;4.03;;;1.50;84.10;;;;;;5081476;28;20186;-71
2022/12/19 05:27:06;;;;;;;7.13;3.70;;;1.40;84.20;;;;;;5082406;28;20193;-70
2022/12/19 05:29:31;;;;;;;5.50;3.47;;;1.40;84.20;;;;;;5082448;28;20264;-70
2022/12/19 05:31:57;;;;;;;4.73;4.30;;;1.40;84.30;;;;;;5083718;28;20182;-71
2022/12/19 05:34:23;;;;;;;5.30;3.87;;;1.50;84.20;;;;;;5080729;28;20194;-70
2022/12/19 05:36:49;;;;;;;7.97;4.20;;;1.50;84.20;;;;;;5084477;28;20768;-70
2022/12/19 05:39:14;;;;;;;3.40;3.10;;;1.50;84.30;;;;;;5084274;28;20195;-70
2022/12/19 05:41:40;;;;;;;11.27;4.63;;;1.50;84.10;;;;;;5082284;28;20203;-70
2022/12/19 05:44:06;;;;;;;5.50;3.80;;;1.50;83.80;;;;;;5082384;28;21020;-70
2022/12/19 05:46:31;;;;;;;6.43;4.20;;;1.60;83.70;;;;;;5084249;28;20194;-72
2022/12/19 05:48:58;;;;;;;6.50;3.87;;;1.60;83.60;;;;;;5080503;28;20312;-70
2022/12/19 05:51:24;;;;;;;7.03;3.23;;;1.50;83.70;;;;;;5081269;28;20291;-69
2022/12/19 05:53:50;;;;;;;4.87;3.50;;;1.50;83.70;;;;;;5082841;28;20283;-69
2022/12/19 05:56:18;;;;;;;4.27;3.67;;;1.50;83.70;;;;;;5081439;28;20278;-71
2022/12/19 05:58:44;;;;;;;6.20;3.40;;;1.60;83.70;;;;;;5079466;28;20578;-69
2022/12/19 06:01:17;;;;;;;5.07;3.43;;;1.50;83.70;;;;;;5080910;28;20178;-69
2022/12/19 06:03:43;;;;;;;4.43;3.97;;;1.50;83.80;;;;;;5079548;28;20182;-70
2022/12/19 06:06:15;;;;;;;5.83;4.13;;;1.60;83.90;;;;;;5082819;28;20236;-69
2022/12/19 06:08:41;;;;;;;3.87;3.03;;;1.60;83.90;;;;;;5078318;28;20228;-68
2022/12/19 06:11:08;;;;;;;5.60;3.60;;;1.60;84.00;;;;;;5081289;28;20194;-69
2022/12/19 06:13:34;;;;;;;4.37;3.57;;;1.60;84.10;;;;;;5083107;28;20186;-70
2022/12/19 06:16:03;;;;;;;9.87;2.50;;;1.60;84.10;;;;;;5081883;28;20214;-69
2022/12/19 06:18:29;;;;;;;5.27;3.57;;;1.70;84.10;;;;;;5083723;28;20182;-70
2022/12/19 06:21:05;;;;;;;5.77;4.23;;;1.70;84.10;;;;;;5084653;28;20722;-67
2022/12/19 06:23:33;;;;;;;4.90;3.87;;;1.80;83.80;;;;;;5084153;28;20225;-67
2022/12/19 06:26:00;;;;;;;8.63;4.17;;;1.90;83.80;;;;;;5082354;28;20212;-68
2022/12/19 06:28:28;;;;;;;4.80;4.20;;;1.90;83.60;;;;;;5082755;28;20210;-69
2022/12/19 06:30:57;;;;;;;8.83;4.13;;;1.90;83.50;;;;;;5081902;28;20178;-69
2022/12/19 06:33:24;;;;;;;5.57;4.60;;;2.00;83.50;;;;;;5081914;28;20190;-69
2022/12/19 06:36:05;;;;;;;7.37;3.40;;;2.00;83.60;;;;;;5083300;28;20731;-68
2022/12/19 06:38:32;;;;;;;6.07;4.30;;;2.00;83.60;;;;;;5081858;28;20264;-69
2022/12/19 06:43:43;;;;;;;7.40;4.20;;;2.10;83.50;;;;;;5082441;28;20307;-68
2022/12/19 06:46:09;;;;;;;6.83;3.93;;;2.10;83.70;;;;;;5082988;28;20190;-68
2022/12/19 06:48:34;;;;;;;6.10;4.17;;;2.10;83.80;;;;;;5081303;28;20711;-68
2022/12/19 06:51:00;;;;;;;3.33;3.03;;;2.20;83.90;;;;;;5081169;28;20220;-68
2022/12/19 06:53:26;;;;;;;7.03;3.87;;;2.30;83.80;;;;;;5083311;28;20963;-69
2022/12/19 06:55:55;;;;;;;7.00;3.70;;;2.30;83.80;;;;;;5083409;28;20178;-69
2022/12/19 06:58:21;;;;;;;5.53;4.10;;;2.40;83.90;;;;;;5082318;28;20634;-69
2022/12/19 07:00:47;;;;;;;5.53;3.53;;;2.40;83.80;;;;;;5081890;28;20189;-69
2022/12/19 07:03:16;;;;;;;7.00;4.70;;;2.50;83.30;;;;;;5081356;28;20651;-69
2022/12/19 07:05:42;;;;;;;6.33;3.37;;;2.60;83.10;;;;;;5081986;28;20193;-69
2022/12/19 07:08:09;;;;;;;5.00;3.93;;;2.60;83.20;;;;;;5081338;28;20206;-69
2022/12/19 07:10:35;;;;;;;5.97;3.87;;;2.60;83.40;;;;;;5081928;28;20186;-69
2022/12/19 07:13:01;;;;;;;10.87;4.97;;;2.70;83.10;;;;;;5081872;28;20242;-69
2022/12/19 07:15:28;;;;;;;7.40;4.60;;;2.70;82.70;;;;;;5083820;28;20249;-69
2022/12/19 07:17:54;;;;;;;4.57;3.70;;;2.80;82.90;;;;;;5082133;28;20178;-69
2022/12/19 07:20:20;;;;;;;5.30;3.90;;;2.80;83.20;;;;;;5080268;28;20190;-69
2022/12/19 07:22:47;;;;;;;5.57;4.33;;;2.80;83.30;;;;;;5081523;28;20182;-68
2022/12/19 07:25:13;;;;;;;6.43;4.27;;;2.90;83.20;;;;;;5078673;28;20174;-67
2022/12/19 07:27:39;;;;;;;8.80;4.67;;;3.00;83.20;;;;;;5081882;28;20266;-68
2022/12/19 07:30:06;;;;;;;9.70;4.40;;;3.00;83.20;;;;;;5081488;28;20178;-68
2022/12/19 07:32:32;;;;;;;5.10;3.70;;;3.10;83.10;;;;;;5079412;28;20178;-68
2022/12/19 07:34:58;;;;;;;6.87;4.93;;;3.10;82.70;;;;;;5080559;28;20178;-67
2022/12/19 07:37:24;;;;;;;9.20;4.43;;;3.20;82.90;;;;;;5080983;28;20265;-68
2022/12/19 07:39:51;;;;;;;6.90;4.80;;;3.20;83.00;;;;;;5082058;28;20182;-69
2022/12/19 07:42:17;;;;;;;7.83;5.10;;;3.30;83.10;;;;;;5079354;28;20287;-69
2022/12/19 07:44:43;;;;;;;6.43;4.93;;;3.30;83.00;;;;;;5082667;28;20688;-69
2022/12/19 07:47:08;;;;;;;7.43;4.60;;;3.40;83.10;;;;;;5082669;28;20234;-68
2022/12/19 07:49:34;;;;;;;6.60;5.20;;;3.40;82.90;;;;;;5081225;28;20218;-69
2022/12/19 07:52:00;;;;;;;10.37;5.47;;;3.50;82.80;;;;;;5080146;28;20639;-69
2022/12/19 07:54:26;;;;;;;8.50;5.13;;;3.50;82.70;;;;;;5081520;28;20236;-69
2022/12/19 07:56:51;;;;;;;10.03;5.47;;;3.60;82.80;;;;;;5081988;28;20228;-69
2022/12/19 07:59:17;;;;;;;10.83;5.83;;;3.60;82.60;;;;;;5078953;28;20182;-69
2022/12/19 08:01:43;;;;;;;9.47;6.23;;;3.60;82.60;;;;;;5080072;28;20224;-69
2022/12/19 08:04:08;;;;;;;11.63;6.07;;;3.70;82.50;;;;;;5080771;28;20194;-69
2022/12/19 08:06:34;;;;;;;10.20;6.70;;;3.70;81.60;;;;;;5082721;28;20175;-68
2022/12/19 08:08:59;;;;;;;7.67;5.67;;;3.70;82.10;;;;;;5080952;28;20218;-69
2022/12/19 08:11:26;;;;;;;8.97;5.30;;;3.70;82.00;;;;;;5081640;28;20290;-69
2022/12/19 08:13:56;;;;;;;12.63;5.87;;;3.80;81.90;;;;;;5079396;28;20182;-69
2022/12/19 08:16:23;;;;;;;15.97;6.17;;;3.80;81.90;;;;;;5082110;28;20944;-69
2022/12/19 08:18:49;;;;;;;12.57;5.23;;;3.80;82.10;;;;;;5080067;28;20209;-69
2022/12/19 08:21:15;;;;;;;14.50;5.40;;;3.80;81.90;;;;;;5081592;28;20178;-69
2022/12/19 08:23:41;;;;;;;8.70;6.20;;;3.90;81.40;;;;;;5083287;28;20285;-69
2022/12/19 08:26:10;;;;;;;11.00;6.57;;;3.90;80.70;;;;;;5080910;28;20243;-69
2022/12/19 08:28:36;;;;;;;11.60;6.57;;;3.80;81.20;;;;;;5080978;28;20297;-69
2022/12/19 08:31:11;;;;;;;15.13;6.70;;;3.80;81.50;;;;;;5085895;28;20551;-69
2022/12/19 08:33:37;;;;;;;12.47;7.00;;;3.80;81.50;;;;;;5084468;28;20655;-69
2022/12/19 08:36:07;;;;;;;16.47;7.00;;;3.90;81.70;;;;;;5084629;28;20178;-69
2022/12/19 08:38:33;;;;;;;11.20;7.03;;;3.90;81.30;;;;;;5084596;28;20178;-69
2022/12/19 08:40:59;;;;;;;16.23;7.90;;;3.90;81.50;;;;;;5085025;28;20268;-69
2022/12/19 08:43:26;;;;;;;12.93;7.00;;;3.90;81.40;;;;;;5082195;28;20269;-69
2022/12/19 08:45:52;;;;;;;10.43;6.70;;;4.00;81.70;;;;;;5084810;28;20201;-69
2022/12/19 08:48:17;;;;;;;20.10;7.27;;;4.00;81.80;;;;;;5085257;28;20240;-69
2022/12/19 08:50:57;;;;;;;14.63;8.83;;;4.10;81.00;;;;;;5084110;28;20212;-69
2022/12/19 08:53:25;;;;;;;16.83;8.50;;;4.10;81.20;;;;;;5078324;28;20188;-70
2022/12/19 08:55:56;;;;;;;15.87;7.90;;;4.10;80.80;;;;;;5086251;28;20174;-70
2022/12/19 08:58:23;;;;;;;15.53;8.53;;;4.10;81.30;;;;;;5085576;28;20187;-70
2022/12/19 09:00:48;;;;;;;16.37;8.87;;;4.10;81.60;;;;;;5085004;28;20178;-70
2022/12/19 09:03:14;;;;;;;16.00;9.67;;;4.20;81.40;;;;;;5084160;28;20400;-69
2022/12/19 09:05:40;;;;;;;14.93;8.87;;;4.20;81.50;;;;;;5082523;28;20262;-69
2022/12/19 09:08:06;;;;;;;14.07;9.27;;;4.20;81.00;;;;;;5084973;28;20217;-69
2022/12/19 09:10:35;;;;;;;15.50;8.50;;;4.30;79.80;;;;;;5084081;28;20178;-69
2022/12/19 09:13:01;;;;;;;19.47;8.50;;;4.10;80.00;;;;;;5084182;28;20263;-69
2022/12/19 09:15:26;;;;;;;13.90;7.67;;;4.20;80.50;;;;;;5084127;28;20251;-69
2022/12/19 09:17:52;;;;;;;16.40;8.63;;;4.20;80.80;;;;;;5083654;28;20191;-69
2022/12/19 09:20:18;;;;;;;14.20;8.53;;;4.20;80.90;;;;;;5084449;28;20166;-69
2022/12/19 09:22:43;;;;;;;16.53;8.73;;;4.20;80.80;;;;;;5084581;28;20192;-69
2022/12/19 09:25:09;;;;;;;11.77;7.50;;;4.20;80.00;;;;;;5084327;28;20189;-69
2022/12/19 09:27:35;;;;;;;17.60;8.23;;;4.20;80.40;;;;;;5083612;28;20182;-69
2022/12/19 09:30:01;;;;;;;11.30;7.10;;;4.20;80.20;;;;;;5085044;28;20182;-69
2022/12/19 09:32:27;;;;;;;11.47;6.93;;;4.10;80.60;;;;;;5081290;28;20705;-69
2022/12/19 09:34:52;;;;;;;14.63;7.60;;;4.10;80.80;;;;;;5084146;28;20660;-69
2022/12/19 09:37:19;;;;;;;13.57;7.10;;;4.00;80.90;;;;;;5081242;28;20656;-69
2022/12/19 09:39:46;;;;;;;10.13;6.53;;;4.00;80.90;;;;;;5081334;28;20198;-70
2022/12/19 09:42:30;;;;;;;13.67;5.70;;;4.00;81.20;;;;;;5082907;28;20174;-70
2022/12/19 09:45:23;;;;;;;8.93;5.73;;;4.10;81.10;;;;;;5082434;28;20613;-70
2022/12/19 09:47:54;;;;;;;13.93;6.17;;;4.00;81.60;;;;;;5080056;28;20218;-70
2022/12/19 09:50:28;;;;;;;15.70;6.77;;;4.10;81.80;;;;;;5082961;28;20724;-68
2022/12/19 09:53:09;;;;;;;12.00;5.60;;;4.10;81.90;;;;;;5082637;28;20196;-69
2022/12/19 09:55:39;;;;;;;7.97;5.50;;;4.20;82.10;;;;;;5081252;28;20189;-69
2022/12/19 09:58:33;;;;;;;9.63;5.67;;;4.30;82.40;;;;;;5081210;28;20261;-69
2022/12/19 10:01:04;;;;;;;8.33;4.37;;;4.40;82.70;;;;;;5079689;28;20607;-69
2022/12/19 10:03:35;;;;;;;10.60;6.27;;;4.60;82.90;;;;;;5079162;28;20239;-69
2022/12/19 10:06:21;;;;;;;11.60;6.77;;;4.80;82.70;;;;;;5079689;28;20299;-68
2022/12/19 10:08:47;;;;;;;8.93;5.77;;;5.10;82.30;;;;;;5081904;28;20209;-69
2022/12/19 10:11:16;;;;;;;9.30;6.47;;;5.30;82.00;;;;;;5080488;28;20193;-69
2022/12/19 10:14:19;;;;;;;10.27;6.00;;;5.40;82.00;;;;;;5083528;28;20269;-69
2022/12/19 10:16:56;;;;;;;10.13;5.70;;;5.60;81.80;;;;;;5081940;28;20182;-68
2022/12/19 10:19:37;;;;;;;8.40;5.50;;;5.80;81.40;;;;;;5080974;28;20234;-69
2022/12/19 10:22:20;;;;;;;13.00;5.73;;;5.90;81.00;;;;;;5082178;28;20185;-68
2022/12/19 10:24:59;;;;;;;9.07;6.10;;;6.10;80.80;;;;;;5081705;28;20974;-68
2022/12/19 10:28:05;;;;;;;12.20;6.07;;;6.20;80.40;;;;;;5079619;28;20195;-69
2022/12/19 10:30:38;;;;;;;11.77;6.10;;;6.30;80.20;;;;;;5079708;28;20213;-70
2022/12/19 10:33:13;;;;;;;11.97;6.60;;;6.30;80.10;;;;;;5083990;28;20223;-70
2022/12/19 10:35:44;;;;;;;9.97;6.33;;;6.40;79.70;;;;;;5079010;28;20174;-70
2022/12/19 10:38:10;;;;;;;13.37;7.47;;;6.40;78.70;;;;;;5079774;28;20175;-69
2022/12/19 10:40:44;;;;;;;12.53;6.17;;;6.40;79.00;;;;;;5080385;28;20205;-69
2022/12/19 10:43:29;;;;;;;13.03;6.23;;;6.40;79.00;;;;;;5081710;28;20188;-69
2022/12/19 10:45:59;;;;;;;11.43;6.37;;;6.40;79.30;;;;;;5078586;28;20194;-69
2022/12/19 10:48:24;;;;;;;14.37;6.97;;;6.50;79.30;;;;;;5079578;28;20902;-69
2022/12/19 10:50:50;;;;;;;11.97;6.50;;;6.50;79.40;;;;;;5077256;28;20174;-69
2022/12/19 10:53:26;;;;;;;10.67;6.90;;;6.60;79.20;;;;;;5078340;28;20762;-69
2022/12/19 10:55:54;;;;;;;13.30;7.13;;;6.60;79.50;;;;;;5077610;28;20209;-69
2022/12/19 10:58:32;;;;;;;15.10;7.97;;;6.70;79.40;;;;;;5078355;28;21022;-69
2022/12/19 11:01:14;;;;;;;12.40;7.27;;;6.80;79.10;;;;;;5082017;28;20659;-71
2022/12/19 11:03:48;;;;;;;8.83;6.00;;;6.80;79.30;;;;;;5081279;28;20227;-70
2022/12/19 11:07:02;;;;;;;10.13;5.43;;;6.90;78.70;;;;;;5079728;28;20193;-70
2022/12/19 11:09:46;;;;;;;10.17;6.63;;;7.00;78.20;;;;;;5038171;28;20227;-70
2022/12/19 11:12:15;;;;;;;9.60;6.57;;;7.00;78.10;;;;;;5038153;28;20199;-69
2022/12/19 11:14:51;;;;;;;11.93;6.90;;;7.00;78.30;;;;;;5039410;28;20180;-70
2022/12/19 11:17:34;;;;;;;10.50;7.17;;;7.00;78.20;;;;;;5040142;28;20183;-70
2022/12/19 11:20:12;;;;;;;9.67;6.80;;;6.90;78.20;;;;;;5039848;28;20200;-71
2022/12/19 11:22:39;;;;;;;15.80;7.73;;;6.90;77.80;;;;;;5039386;28;20187;-69
2022/12/19 11:25:05;;;;;;;11.53;7.00;;;6.80;78.20;;;;;;5021720;28;20193;-70
2022/12/19 11:27:44;;;;;;;11.57;6.50;;;6.80;78.20;;;;;;5023703;28;20752;-69
2022/12/19 11:30:15;;;;;;;7.73;5.77;;;6.80;78.40;;;;;;5037819;28;20188;-69
2022/12/19 11:32:43;;;;;;;8.77;6.33;;;6.80;78.70;;;;;;5038616;28;20188;-69
2022/12/19 11:35:20;;;;;;;10.73;6.20;;;6.70;78.70;;;;;;5039018;28;20286;-70
2022/12/19 11:37:49;;;;;;;7.80;5.57;;;6.70;78.70;;;;;;5037716;28;20191;-70
2022/12/19 11:40:37;;;;;;;11.33;6.23;;;6.70;78.80;;;;;;5037260;28;20191;-70
2022/12/19 11:43:22;;;;;;;9.83;5.73;;;6.70;78.80;;;;;;5036153;28;20210;-70
2022/12/19 11:46:01;;;;;;;7.37;4.50;;;6.70;78.40;;;;;;5075149;28;20201;-69
2022/12/19 11:48:43;;;;;;;8.27;5.50;;;6.70;78.50;;;;;;5081693;28;20214;-69
2022/12/19 11:51:27;;;;;;;7.20;5.17;;;6.60;78.60;;;;;;5080786;28;20212;-69
2022/12/19 11:53:56;;;;;;;6.63;4.37;;;6.50;79.00;;;;;;5078700;28;20186;-69
2022/12/19 11:56:26;;;;;;;7.87;4.80;;;6.60;78.70;;;;;;5076016;28;20182;-71
2022/12/19 11:59:06;;;;;;;6.73;4.80;;;6.50;78.90;;;;;;5079792;28;20182;-69
2022/12/19 12:01:32;;;;;;;7.80;4.40;;;6.50;78.90;;;;;;5080002;28;20175;-69
2022/12/19 12:04:20;;;;;;;4.63;3.90;;;6.50;78.60;;;;;;5077154;28;20732;-70
2022/12/19 12:06:54;;;;;;;6.83;4.97;;;6.50;78.30;;;;;;5025674;28;20196;-69
2022/12/19 12:09:35;;;;;;;9.13;5.00;;;6.40;78.40;;;;;;5023564;28;20233;-69
2022/12/19 12:12:24;;;;;;;6.83;4.40;;;6.40;78.60;;;;;;5007210;28;20629;-70
2022/12/19 12:15:20;;;;;;;6.30;4.67;;;6.30;78.60;;;;;;5026883;28;20196;-70
2022/12/19 12:18:13;;;;;;;7.47;4.03;;;6.30;78.70;;;;;;5022948;28;20657;-70
2022/12/19 12:21:05;;;;;;;4.53;4.00;;;6.20;78.80;;;;;;5024299;28;20263;-70
2022/12/19 12:23:47;;;;;;;6.37;4.37;;;6.20;79.10;;;;;;5027499;28;20203;-69
2022/12/19 12:26:31;;;;;;;6.93;4.13;;;6.20;79.10;;;;;;5024894;28;20193;-70
2022/12/19 12:29:19;;;;;;;5.13;3.93;;;6.10;79.30;;;;;;5023099;28;20594;-70
2022/12/19 12:32:22;;;;;;;8.33;4.30;;;6.00;79.50;;;;;;5024664;28;20893;-70
2022/12/19 12:35:16;;;;;;;5.03;4.40;;;6.00;79.50;;;;;;5024916;28;20241;-70
2022/12/19 12:38:02;;;;;;;7.50;3.60;;;6.00;79.60;;;;;;4964257;28;20202;-70
2022/12/19 12:40:42;;;;;;;7.07;4.63;;;6.00;79.60;;;;;;4965586;28;20190;-69
2022/12/19 12:43:17;;;;;;;7.80;4.07;;;5.90;79.60;;;;;;4978462;28;20203;-71
2022/12/19 12:45:46;;;;;;;7.13;4.70;;;5.90;79.80;;;;;;5010510;28;20199;-69
2022/12/19 12:48:26;;;;;;;6.67;4.00;;;5.90;79.80;;;;;;5025467;28;20744;-69
2022/12/19 12:50:53;;;;;;;8.53;4.67;;;5.90;79.90;;;;;;5024516;28;20214;-70
2022/12/19 12:53:26;;;;;;;7.47;4.57;;;5.90;79.90;;;;;;5026826;28;20187;-70
2022/12/19 12:55:55;;;;;;;8.33;4.23;;;5.90;80.00;;;;;;5027979;28;20781;-69
2022/12/19 12:58:45;;;;;;;5.43;4.23;;;5.90;79.90;;;;;;5025624;28;20277;-71
2022/12/19 13:01:30;;;;;;;4.60;3.40;;;5.90;79.70;;;;;;5024058;28;20203;-69
2022/12/19 13:04:06;;;;;;;7.00;4.40;;;5.80;79.50;;;;;;5027187;28;20672;-71
2022/12/19 13:07:02;;;;;;;5.80;3.37;;;5.80;79.40;;;;;;5025133;28;20184;-70
2022/12/19 13:09:35;;;;;;;4.20;3.83;;;5.80;79.40;;;;;;5023875;28;20733;-69
2022/12/19 13:15:30;;;;;;;4.50;4.03;;;5.80;79.40;;;;;;5067779;28;20224;-69
2022/12/19 13:17:56;;;;;;;4.87;3.57;;;5.70;79.40;;;;;;5077900;28;20190;-69
2022/12/19 13:20:27;;;;;;;3.90;3.50;;;5.70;79.00;;;;;;5082616;28;20264;-69
2022/12/19 13:22:56;;;;;;;3.20;3.00;;;5.70;78.50;;;;;;5081992;28;20182;-69
2022/12/19 13:25:25;;;;;;;4.77;3.57;;;5.70;78.60;;;;;;5079297;28;20686;-71
2022/12/19 13:28:01;;;;;;;6.67;4.00;;;5.70;78.20;;;;;;5080840;28;20185;-70